Darya Jyoti — VRGM9 — position and weather

sailwx.info

Track history (hours):
 
Tides and Currents Weather Stations Pressure Air Temp Water Temp Dewpoint Dewpoint Depression Visibility Wind Speed Wind Dir Waves Ship Positions

Darya Jyoti

Last reported at 2015-Jun-26 04:34 UTC. Time now 2015-Jul-03 17:16 UTC.
Position N 48°31' W 126°19'.

Length 229 m; draft 13.6 m.

Type: Cargo ship. MMSI: 477742700.

Date/timePositionNaut miles runAvg speedWind from/ knotsBaromVisibWave heightAir tempDewpointWater temp
2015-Jun-26 04:34N 48°31' W 126°19'1211.7
2015-Jun-26 03:34N 48°32' W 126°01'1211.8
2015-Jun-26 02:32N 48°32' W 125°43'1211.8
2015-Jun-26 01:34N 48°32' W 125°25'1211.8
2015-Jun-26 00:33N 48°32' W 125°07'1212.1
2015-Jun-25 23:34N 48°32' W 124°49'1212.3
2015-Jun-25 22:33N 48°27' W 124°32'1211.8
2015-Jun-25 21:33N 48°23' W 124°15'1211.7
2015-Jun-25 20:33N 48°18' W 123°59'1212.0
2015-Jun-25 19:33N 48°16' W 123°41'1010.3
2015-Jun-25 18:32N 48°20' W 123°26'9 9.4
2015-Jun-25 17:34N 48°24' W 123°14'1212.3
2015-Jun-25 16:33N 48°37' W 123°14'1111.0
2015-Jun-25 15:33N 48°46' W 123°04'1010.0
2015-Jun-25 14:33N 48°55' W 123°10'1313.2
2015-Jun-25 13:33N 49°05' W 123°23'1313.0
2015-Jun-25 12:33N 49°17' W 123°18'9 9.3
2015-Jun-25 11:33N 49°18' W 123°04'0 0.1
2015-Jun-25 10:31N 49°18' W 123°04'0 0.0
2015-Jun-25 09:31N 49°18' W 123°04'0 0.1
2015-Jun-25 08:31N 49°18' W 123°04'0 0.2
2015-Jun-25 07:31N 49°18' W 123°04'0 0.1
2015-Jun-25 06:31N 49°18' W 123°04'0 0.0
2015-Jun-25 05:31N 49°18' W 123°04'0 0.0
2015-Jun-25 04:31N 49°18' W 123°04'0 0.1
2015-Jun-25 03:31N 49°18' W 123°04'0 0.2
2015-Jun-25 02:31N 49°18' W 123°04'0 0.1
2015-Jun-25 01:31N 49°18' W 123°04'0 0.0
2015-Jun-25 00:31N 49°18' W 123°04'0 0.0
2015-Jun-24 23:31N 49°18' W 123°04'0 0.1
2015-Jun-24 22:31N 49°18' W 123°04'0 0.1
2015-Jun-24 21:31N 49°18' W 123°04'0 0.1
2015-Jun-24 20:31N 49°18' W 123°04'0 0.1
2015-Jun-24 19:31N 49°18' W 123°04'0 0.0
2015-Jun-24 18:31N 49°18' W 123°04'0 0.1
2015-Jun-24 17:31N 49°18' W 123°04'0 0.1
2015-Jun-24 16:31N 49°18' W 123°04'0 0.1
2015-Jun-24 15:31N 49°18' W 123°04'0 0.0
2015-Jun-24 14:31N 49°18' W 123°04'0 0.0
2015-Jun-24 13:31N 49°18' W 123°04'0 0.0
2015-Jun-24 12:31N 49°18' W 123°04'0 0.0
2015-Jun-24 11:31N 49°18' W 123°04'0 0.1
2015-Jun-24 10:34N 49°18' W 123°04'1 0.6
2015-Jun-24 09:32N 49°17' W 123°05'0 0.0
2015-Jun-24 08:32N 49°17' W 123°05'0 0.0
2015-Jun-24 07:32N 49°17' W 123°05'0 0.0
2015-Jun-24 06:32N 49°17' W 123°05'0 0.0
2015-Jun-24 05:32N 49°17' W 123°05'0 0.0
2015-Jun-24 04:32N 49°17' W 123°05'0 0.0
2015-Jun-24 03:32N 49°17' W 123°05'0 0.0
2015-Jun-24 02:32N 49°17' W 123°05'0 0.0
2015-Jun-24 01:32N 49°17' W 123°05'0 0.0
2015-Jun-24 00:32N 49°17' W 123°05'0 0.0
2015-Jun-23 23:32N 49°17' W 123°05'0 0.0
2015-Jun-23 22:32N 49°17' W 123°05'0 0.0
2015-Jun-23 21:32N 49°17' W 123°05'0 0.0
2015-Jun-23 20:32N 49°17' W 123°05'0 0.0
2015-Jun-23 19:32N 49°17' W 123°05'0 0.1
2015-Jun-23 19:05N 49°17' W 123°05'0 0.0
2015-Jun-22 19:32N 49°17' W 123°05'0 0.0
2015-Jun-22 18:32N 49°17' W 123°05'0 0.0
2015-Jun-22 17:32N 49°17' W 123°05'0 0.0
2015-Jun-22 16:32N 49°17' W 123°05'0 0.0
2015-Jun-22 15:32N 49°17' W 123°05'0 0.0
2015-Jun-22 14:32N 49°17' W 123°05'0 0.0
2015-Jun-22 13:32N 49°17' W 123°05'0 0.0
2015-Jun-22 12:29N 49°17' W 123°05'0 0.0
2015-Jun-22 11:32N 49°17' W 123°05'0 0.0
2015-Jun-22 10:32N 49°17' W 123°05'0 0.0
2015-Jun-22 09:32N 49°17' W 123°05'0 0.0
2015-Jun-22 08:32N 49°17' W 123°05'0 0.0
2015-Jun-22 07:32N 49°17' W 123°05'0 0.5
2015-Jun-22 06:33N 49°18' W 123°05'5 5.0
2015-Jun-22 05:34N 49°19' W 123°13'10 9.8
2015-Jun-22 04:33N 49°17' W 123°28'1313.4
2015-Jun-22 03:33N 49°14' W 123°47'5 5.3
2015-Jun-22 02:32N 49°10' W 123°54'0 0.0
2015-Jun-22 01:32N 49°10' W 123°54'0 0.0
2015-Jun-22 00:32N 49°10' W 123°54'0 0.0
2015-Jun-21 23:26N 49°10' W 123°54'0 0.1
2015-Jun-21 22:26N 49°10' W 123°54'0 0.0
2015-Jun-21 21:26N 49°10' W 123°54'0 0.0
2015-Jun-21 20:23N 49°10' W 123°54'0 0.0
2015-Jun-21 19:26N 49°10' W 123°54'0 0.0
2015-Jun-21 18:32N 49°10' W 123°54'0 0.0
2015-Jun-21 17:17N 49°10' W 123°54'0 0.1
2015-Jun-21 16:29N 49°10' W 123°54'0 0.0
2015-Jun-21 15:32N 49°10' W 123°54'0 0.1
2015-Jun-21 14:26N 49°10' W 123°54'0 0.0
2015-Jun-21 13:23N 49°10' W 123°54'0 0.0
2015-Jun-21 12:32N 49°10' W 123°54'0 0.1
2015-Jun-21 11:26N 49°10' W 123°54'0 0.1
2015-Jun-21 10:32N 49°10' W 123°54'0 0.0
2015-Jun-21 09:32N 49°10' W 123°54'0 0.0
2015-Jun-21 08:29N 49°10' W 123°54'0 0.0
2015-Jun-21 07:32N 49°10' W 123°54'0 0.0
2015-Jun-21 06:23N 49°10' W 123°54'0 0.1
2015-Jun-21 05:29N 49°10' W 123°54'0 0.0
2015-Jun-21 04:32N 49°10' W 123°54'0 0.0
2015-Jun-21 03:32N 49°10' W 123°54'0 0.0
2015-Jun-21 02:32N 49°10' W 123°54'0 0.0
2015-Jun-21 01:23N 49°10' W 123°54'0 0.0
2015-Jun-21 00:26N 49°10' W 123°54'0 0.0
2015-Jun-20 23:32N 49°10' W 123°54'0 0.0
2015-Jun-20 22:26N 49°10' W 123°54'0 0.1
2015-Jun-20 21:14N 49°10' W 123°54'0 0.0
2015-Jun-20 20:26N 49°10' W 123°54'0 0.0
2015-Jun-20 19:05N 49°10' W 123°54'0 0.1
2015-Jun-20 18:32N 49°10' W 123°54'0 0.0
2015-Jun-20 17:26N 49°10' W 123°54'0 0.0
2015-Jun-20 16:26N 49°10' W 123°54'0 0.0
2015-Jun-20 14:32N 49°10' W 123°54'0 0.0
2015-Jun-20 13:23N 49°10' W 123°54'0 0.0
2015-Jun-20 12:23N 49°10' W 123°54'0 0.0
2015-Jun-20 11:23N 49°10' W 123°54'0 0.1
2015-Jun-20 10:29N 49°10' W 123°54'0 0.0
2015-Jun-20 08:32N 49°10' W 123°54'0 0.0
2015-Jun-20 07:32N 49°10' W 123°54'0 0.0
2015-Jun-20 06:23N 49°10' W 123°54'0 0.1
2015-Jun-20 05:26N 49°10' W 123°54'0 0.1
2015-Jun-20 04:29N 49°10' W 123°54'0 0.1
2015-Jun-20 03:29N 49°10' W 123°54'0 0.0
2015-Jun-20 02:08N 49°10' W 123°54'0 0.0
2015-Jun-20 01:32N 49°10' W 123°54'0 0.0
2015-Jun-20 00:26N 49°10' W 123°54'0 0.0
2015-Jun-19 23:29N 49°10' W 123°54'0 0.1
2015-Jun-19 22:20N 49°10' W 123°54'0 0.1
2015-Jun-19 21:32N 49°11' W 123°54'0 0.0
2015-Jun-19 20:32N 49°11' W 123°54'0 0.1
2015-Jun-19 19:17N 49°10' W 123°54'0 0.1
2015-Jun-19 18:05N 49°10' W 123°54'0 0.1
2015-Jun-19 17:14N 49°10' W 123°54'0 0.0
2015-Jun-19 16:32N 49°10' W 123°54'0 0.0
2015-Jun-19 15:32N 49°10' W 123°54'0 0.0
2015-Jun-19 14:32N 49°10' W 123°54'0 0.1
2015-Jun-19 13:29N 49°10' W 123°54'0 0.1
2015-Jun-19 12:32N 49°10' W 123°54'0 0.0
2015-Jun-19 11:32N 49°10' W 123°54'0 0.1
2015-Jun-19 10:32N 49°10' W 123°54'0 0.0
2015-Jun-19 09:32N 49°10' W 123°54'0 0.0
2015-Jun-19 08:17N 49°11' W 123°54'0 0.0
2015-Jun-19 07:32N 49°11' W 123°54'0 0.1
2015-Jun-19 06:20N 49°11' W 123°54'0 0.1
2015-Jun-19 05:23N 49°11' W 123°54'11 0.5
2015-Jun-18 09:18N 49°15' W 123°40'1113.0
2015-Jun-18 08:28N 49°18' W 123°24'1112.0
2015-Jun-18 07:33N 49°18' W 123°07'2 1.9
2015-Jun-18 06:32N 49°17' W 123°05'0 0.0
2015-Jun-18 05:32N 49°17' W 123°05'0 0.0
2015-Jun-18 04:32N 49°17' W 123°05'0 0.0
2015-Jun-18 03:32N 49°17' W 123°05'0 0.0
2015-Jun-18 02:32N 49°17' W 123°05'0 0.0
2015-Jun-18 01:32N 49°17' W 123°05'0 0.0
2015-Jun-18 00:32N 49°17' W 123°05'0 0.0
2015-Jun-17 23:32N 49°17' W 123°05'0 0.0
2015-Jun-17 22:32N 49°17' W 123°05'0 0.0
2015-Jun-17 21:32N 49°17' W 123°05'0 0.0
2015-Jun-17 20:32N 49°17' W 123°05'0 0.0
2015-Jun-17 19:32N 49°17' W 123°05'0 0.0
2015-Jun-17 18:32N 49°17' W 123°05'0 0.0
2015-Jun-17 17:32N 49°17' W 123°05'0 0.0
2015-Jun-17 16:32N 49°17' W 123°05'0 0.0
2015-Jun-17 15:32N 49°17' W 123°05'0 0.0
2015-Jun-17 14:32N 49°17' W 123°05'0 0.0
2015-Jun-17 13:32N 49°17' W 123°05'0 0.0
2015-Jun-17 12:32N 49°17' W 123°05'0 0.0
2015-Jun-17 11:32N 49°17' W 123°05'0 0.0
2015-Jun-17 10:32N 49°17' W 123°05'0 0.0
2015-Jun-17 09:32N 49°17' W 123°05'0 0.0
2015-Jun-17 08:32N 49°17' W 123°05'0 0.0
2015-Jun-17 07:32N 49°17' W 123°05'0 0.0
2015-Jun-17 06:32N 49°17' W 123°05'0 0.0
2015-Jun-17 05:32N 49°17' W 123°05'0 0.0
2015-Jun-17 04:32N 49°17' W 123°05'0 0.0
2015-Jun-17 03:32N 49°17' W 123°05'0 0.0
2015-Jun-17 02:32N 49°17' W 123°05'0 0.0
2015-Jun-17 01:32N 49°17' W 123°05'0 0.0
2015-Jun-17 00:32N 49°17' W 123°05'0 0.0
2015-Jun-16 23:32N 49°17' W 123°05'0 0.0
2015-Jun-16 22:32N 49°17' W 123°05'0 0.0
2015-Jun-16 21:33N 49°17' W 123°05'0 0.1
2015-Jun-16 20:31N 49°17' W 123°05'0 0.0
2015-Jun-16 19:33N 49°17' W 123°05'0 0.0
2015-Jun-16 18:34N 49°17' W 123°05'0 0.0
2015-Jun-16 17:34N 49°17' W 123°05'0 0.0
2015-Jun-16 16:33N 49°17' W 123°05'0 0.0
2015-Jun-16 15:33N 49°17' W 123°05'0 0.0
2015-Jun-16 14:31N 49°17' W 123°05'0 0.0
2015-Jun-16 13:28N 49°17' W 123°05'0 0.0
2015-Jun-16 12:33N 49°17' W 123°05'0 0.0
2015-Jun-16 11:34N 49°17' W 123°05'0 0.0
2015-Jun-16 10:34N 49°17' W 123°05'0 0.0
2015-Jun-16 09:30N 49°17' W 123°05'0 0.0
2015-Jun-16 08:31N 49°17' W 123°05'0 0.0
2015-Jun-16 07:33N 49°17' W 123°05'0 0.0
2015-Jun-16 06:34N 49°17' W 123°05'0 0.0
2015-Jun-16 05:34N 49°17' W 123°05'  
Track history (hours):
 
Tides and Currents Weather Stations Pressure Air Temp Water Temp Dewpoint Dewpoint Depression Visibility Wind Speed Wind Dir Waves Ship Positions

Darya Jyoti

Last reported at 2015-Jun-26 04:34 UTC. Time now 2015-Jul-03 17:16 UTC.
Position N 48°31' W 126°19'.

Length 229 m; draft 13.6 m.

Type: Cargo ship. MMSI: 477742700.

Date/timePositionNaut miles runAvg speedWind from/ knotsBaromVisibWave heightAir tempDewpointWater temp
2015-Jun-26 04:34N 48°31' W 126°19'1211.7
2015-Jun-26 03:34N 48°32' W 126°01'1211.8
2015-Jun-26 02:32N 48°32' W 125°43'1211.8
2015-Jun-26 01:34N 48°32' W 125°25'1211.8
2015-Jun-26 00:33N 48°32' W 125°07'1212.1
2015-Jun-25 23:34N 48°32' W 124°49'1212.3
2015-Jun-25 22:33N 48°27' W 124°32'1211.8
2015-Jun-25 21:33N 48°23' W 124°15'1211.7
2015-Jun-25 20:33N 48°18' W 123°59'1212.0
2015-Jun-25 19:33N 48°16' W 123°41'1010.3
2015-Jun-25 18:32N 48°20' W 123°26'9 9.4
2015-Jun-25 17:34N 48°24' W 123°14'1212.3
2015-Jun-25 16:33N 48°37' W 123°14'1111.0
2015-Jun-25 15:33N 48°46' W 123°04'1010.0
2015-Jun-25 14:33N 48°55' W 123°10'1313.2
2015-Jun-25 13:33N 49°05' W 123°23'1313.0
2015-Jun-25 12:33N 49°17' W 123°18'9 9.3
2015-Jun-25 11:33N 49°18' W 123°04'0 0.1
2015-Jun-25 10:31N 49°18' W 123°04'0 0.0
2015-Jun-25 09:31N 49°18' W 123°04'0 0.1
2015-Jun-25 08:31N 49°18' W 123°04'0 0.2
2015-Jun-25 07:31N 49°18' W 123°04'0 0.1
2015-Jun-25 06:31N 49°18' W 123°04'0 0.0
2015-Jun-25 05:31N 49°18' W 123°04'0 0.0
2015-Jun-25 04:31N 49°18' W 123°04'0 0.1
2015-Jun-25 03:31N 49°18' W 123°04'0 0.2
2015-Jun-25 02:31N 49°18' W 123°04'0 0.1
2015-Jun-25 01:31N 49°18' W 123°04'0 0.0
2015-Jun-25 00:31N 49°18' W 123°04'0 0.0
2015-Jun-24 23:31N 49°18' W 123°04'0 0.1
2015-Jun-24 22:31N 49°18' W 123°04'0 0.1
2015-Jun-24 21:31N 49°18' W 123°04'0 0.1
2015-Jun-24 20:31N 49°18' W 123°04'0 0.1
2015-Jun-24 19:31N 49°18' W 123°04'0 0.0
2015-Jun-24 18:31N 49°18' W 123°04'0 0.1
2015-Jun-24 17:31N 49°18' W 123°04'0 0.1
2015-Jun-24 16:31N 49°18' W 123°04'0 0.1
2015-Jun-24 15:31N 49°18' W 123°04'0 0.0
2015-Jun-24 14:31N 49°18' W 123°04'0 0.0
2015-Jun-24 13:31N 49°18' W 123°04'0 0.0
2015-Jun-24 12:31N 49°18' W 123°04'0 0.0
2015-Jun-24 11:31N 49°18' W 123°04'0 0.1
2015-Jun-24 10:34N 49°18' W 123°04'1 0.6
2015-Jun-24 09:32N 49°17' W 123°05'0 0.0
2015-Jun-24 08:32N 49°17' W 123°05'0 0.0
2015-Jun-24 07:32N 49°17' W 123°05'0 0.0
2015-Jun-24 06:32N 49°17' W 123°05'0 0.0
2015-Jun-24 05:32N 49°17' W 123°05'0 0.0
2015-Jun-24 04:32N 49°17' W 123°05'0 0.0
2015-Jun-24 03:32N 49°17' W 123°05'0 0.0
2015-Jun-24 02:32N 49°17' W 123°05'0 0.0
2015-Jun-24 01:32N 49°17' W 123°05'0 0.0
2015-Jun-24 00:32N 49°17' W 123°05'0 0.0
2015-Jun-23 23:32N 49°17' W 123°05'0 0.0
2015-Jun-23 22:32N 49°17' W 123°05'0 0.0
2015-Jun-23 21:32N 49°17' W 123°05'0 0.0
2015-Jun-23 20:32N 49°17' W 123°05'0 0.0
2015-Jun-23 19:32N 49°17' W 123°05'0 0.1
2015-Jun-23 19:05N 49°17' W 123°05'0 0.0
2015-Jun-22 19:32N 49°17' W 123°05'0 0.0
2015-Jun-22 18:32N 49°17' W 123°05'0 0.0
2015-Jun-22 17:32N 49°17' W 123°05'0 0.0
2015-Jun-22 16:32N 49°17' W 123°05'0 0.0
2015-Jun-22 15:32N 49°17' W 123°05'0 0.0
2015-Jun-22 14:32N 49°17' W 123°05'0 0.0
2015-Jun-22 13:32N 49°17' W 123°05'0 0.0
2015-Jun-22 12:29N 49°17' W 123°05'0 0.0
2015-Jun-22 11:32N 49°17' W 123°05'0 0.0
2015-Jun-22 10:32N 49°17' W 123°05'0 0.0
2015-Jun-22 09:32N 49°17' W 123°05'0 0.0
2015-Jun-22 08:32N 49°17' W 123°05'0 0.0
2015-Jun-22 07:32N 49°17' W 123°05'0 0.5
2015-Jun-22 06:33N 49°18' W 123°05'5 5.0
2015-Jun-22 05:34N 49°19' W 123°13'10 9.8
2015-Jun-22 04:33N 49°17' W 123°28'1313.4
2015-Jun-22 03:33N 49°14' W 123°47'5 5.3
2015-Jun-22 02:32N 49°10' W 123°54'0 0.0
2015-Jun-22 01:32N 49°10' W 123°54'0 0.0
2015-Jun-22 00:32N 49°10' W 123°54'0 0.0
2015-Jun-21 23:26N 49°10' W 123°54'0 0.1
2015-Jun-21 22:26N 49°10' W 123°54'0 0.0
2015-Jun-21 21:26N 49°10' W 123°54'0 0.0
2015-Jun-21 20:23N 49°10' W 123°54'0 0.0
2015-Jun-21 19:26N 49°10' W 123°54'0 0.0
2015-Jun-21 18:32N 49°10' W 123°54'0 0.0
2015-Jun-21 17:17N 49°10' W 123°54'0 0.1
2015-Jun-21 16:29N 49°10' W 123°54'0 0.0
2015-Jun-21 15:32N 49°10' W 123°54'0 0.1
2015-Jun-21 14:26N 49°10' W 123°54'0 0.0
2015-Jun-21 13:23N 49°10' W 123°54'0 0.0
2015-Jun-21 12:32N 49°10' W 123°54'0 0.1
2015-Jun-21 11:26N 49°10' W 123°54'0 0.1
2015-Jun-21 10:32N 49°10' W 123°54'0 0.0
2015-Jun-21 09:32N 49°10' W 123°54'0 0.0
2015-Jun-21 08:29N 49°10' W 123°54'0 0.0
2015-Jun-21 07:32N 49°10' W 123°54'0 0.0
2015-Jun-21 06:23N 49°10' W 123°54'0 0.1
2015-Jun-21 05:29N 49°10' W 123°54'0 0.0
2015-Jun-21 04:32N 49°10' W 123°54'0 0.0
2015-Jun-21 03:32N 49°10' W 123°54'0 0.0
2015-Jun-21 02:32N 49°10' W 123°54'0 0.0
2015-Jun-21 01:23N 49°10' W 123°54'0 0.0
2015-Jun-21 00:26N 49°10' W 123°54'0 0.0
2015-Jun-20 23:32N 49°10' W 123°54'0 0.0
2015-Jun-20 22:26N 49°10' W 123°54'0 0.1
2015-Jun-20 21:14N 49°10' W 123°54'0 0.0
2015-Jun-20 20:26N 49°10' W 123°54'0 0.0
2015-Jun-20 19:05N 49°10' W 123°54'0 0.1
2015-Jun-20 18:32N 49°10' W 123°54'0 0.0
2015-Jun-20 17:26N 49°10' W 123°54'0 0.0
2015-Jun-20 16:26N 49°10' W 123°54'0 0.0
2015-Jun-20 14:32N 49°10' W 123°54'0 0.0
2015-Jun-20 13:23N 49°10' W 123°54'0 0.0
2015-Jun-20 12:23N 49°10' W 123°54'0 0.0
2015-Jun-20 11:23N 49°10' W 123°54'0 0.1
2015-Jun-20 10:29N 49°10' W 123°54'0 0.0
2015-Jun-20 08:32N 49°10' W 123°54'0 0.0
2015-Jun-20 07:32N 49°10' W 123°54'0 0.0
2015-Jun-20 06:23N 49°10' W 123°54'0 0.1
2015-Jun-20 05:26N 49°10' W 123°54'0 0.1
2015-Jun-20 04:29N 49°10' W 123°54'0 0.1
2015-Jun-20 03:29N 49°10' W 123°54'0 0.0
2015-Jun-20 02:08N 49°10' W 123°54'0 0.0
2015-Jun-20 01:32N 49°10' W 123°54'0 0.0
2015-Jun-20 00:26N 49°10' W 123°54'0 0.0
2015-Jun-19 23:29N 49°10' W 123°54'0 0.1
2015-Jun-19 22:20N 49°10' W 123°54'0 0.1
2015-Jun-19 21:32N 49°11' W 123°54'0 0.0
2015-Jun-19 20:32N 49°11' W 123°54'0 0.1
2015-Jun-19 19:17N 49°10' W 123°54'0 0.1
2015-Jun-19 18:05N 49°10' W 123°54'0 0.1
2015-Jun-19 17:14N 49°10' W 123°54'0 0.0
2015-Jun-19 16:32N 49°10' W 123°54'0 0.0
2015-Jun-19 15:32N 49°10' W 123°54'0 0.0
2015-Jun-19 14:32N 49°10' W 123°54'0 0.1
2015-Jun-19 13:29N 49°10' W 123°54'0 0.1
2015-Jun-19 12:32N 49°10' W 123°54'0 0.0
2015-Jun-19 11:32N 49°10' W 123°54'0 0.1
2015-Jun-19 10:32N 49°10' W 123°54'0 0.0
2015-Jun-19 09:32N 49°10' W 123°54'0 0.0
2015-Jun-19 08:17N 49°11' W 123°54'0 0.0
2015-Jun-19 07:32N 49°11' W 123°54'0 0.1
2015-Jun-19 06:20N 49°11' W 123°54'0 0.1
2015-Jun-19 05:23N 49°11' W 123°54'11 0.5
2015-Jun-18 09:18N 49°15' W 123°40'1113.0
2015-Jun-18 08:28N 49°18' W 123°24'1112.0
2015-Jun-18 07:33N 49°18' W 123°07'2 1.9
2015-Jun-18 06:32N 49°17' W 123°05'0 0.0
2015-Jun-18 05:32N 49°17' W 123°05'0 0.0
2015-Jun-18 04:32N 49°17' W 123°05'0 0.0
2015-Jun-18 03:32N 49°17' W 123°05'0 0.0
2015-Jun-18 02:32N 49°17' W 123°05'0 0.0
2015-Jun-18 01:32N 49°17' W 123°05'0 0.0
2015-Jun-18 00:32N 49°17' W 123°05'0 0.0
2015-Jun-17 23:32N 49°17' W 123°05'0 0.0
2015-Jun-17 22:32N 49°17' W 123°05'0 0.0
2015-Jun-17 21:32N 49°17' W 123°05'0 0.0
2015-Jun-17 20:32N 49°17' W 123°05'0 0.0
2015-Jun-17 19:32N 49°17' W 123°05'0 0.0
2015-Jun-17 18:32N 49°17' W 123°05'0 0.0
2015-Jun-17 17:32N 49°17' W 123°05'0 0.0
2015-Jun-17 16:32N 49°17' W 123°05'0 0.0
2015-Jun-17 15:32N 49°17' W 123°05'0 0.0
2015-Jun-17 14:32N 49°17' W 123°05'0 0.0
2015-Jun-17 13:32N 49°17' W 123°05'0 0.0
2015-Jun-17 12:32N 49°17' W 123°05'0 0.0
2015-Jun-17 11:32N 49°17' W 123°05'0 0.0
2015-Jun-17 10:32N 49°17' W 123°05'0 0.0
2015-Jun-17 09:32N 49°17' W 123°05'0 0.0
2015-Jun-17 08:32N 49°17' W 123°05'0 0.0
2015-Jun-17 07:32N 49°17' W 123°05'0 0.0
2015-Jun-17 06:32N 49°17' W 123°05'0 0.0
2015-Jun-17 05:32N 49°17' W 123°05'0 0.0
2015-Jun-17 04:32N 49°17' W 123°05'0 0.0
2015-Jun-17 03:32N 49°17' W 123°05'0 0.0
2015-Jun-17 02:32N 49°17' W 123°05'0 0.0
2015-Jun-17 01:32N 49°17' W 123°05'0 0.0
2015-Jun-17 00:32N 49°17' W 123°05'0 0.0
2015-Jun-16 23:32N 49°17' W 123°05'0 0.0
2015-Jun-16 22:32N 49°17' W 123°05'0 0.0
2015-Jun-16 21:33N 49°17' W 123°05'0 0.1
2015-Jun-16 20:31N 49°17' W 123°05'0 0.0
2015-Jun-16 19:33N 49°17' W 123°05'0 0.0
2015-Jun-16 18:34N 49°17' W 123°05'0 0.0
2015-Jun-16 17:34N 49°17' W 123°05'0 0.0
2015-Jun-16 16:33N 49°17' W 123°05'0 0.0
2015-Jun-16 15:33N 49°17' W 123°05'0 0.0
2015-Jun-16 14:31N 49°17' W 123°05'0 0.0
2015-Jun-16 13:28N 49°17' W 123°05'0 0.0
2015-Jun-16 12:33N 49°17' W 123°05'0 0.0
2015-Jun-16 11:34N 49°17' W 123°05'0 0.0
2015-Jun-16 10:34N 49°17' W 123°05'0 0.0
2015-Jun-16 09:30N 49°17' W 123°05'0 0.0
2015-Jun-16 08:31N 49°17' W 123°05'0 0.0
2015-Jun-16 07:33N 49°17' W 123°05'0 0.0
2015-Jun-16 06:34N 49°17' W 123°05'0 0.0
2015-Jun-16 05:34N 49°17' W 123°05'  

Dump ship's entire track history